Time;durP1;ratioP1;P1;durP2;ratioP2;P2;SDS_P1;SDS_P2;PMS_P1;PMS_P2;Temp;Humidity;BMP_temperature;BMP_pressure;BME280_temperature;BME280_humidity;BME280_pressure;Samples;Min_cycle;Max_cycle;Signal;HPM_P1;HPM_P2
2022/02/12 00:00:04;;;;;;;6.33;5.83;;;;;;;0.19;100.00;98621.53;4969894;28;20205;-51
2022/02/12 00:02:34;;;;;;;6.57;5.13;;;;;;;0.12;100.00;98620.16;4959333;28;20234;-48
2022/02/12 00:05:02;;;;;;;6.10;4.40;;;;;;;0.21;100.00;98614.47;4986210;28;20295;-51
2022/02/12 00:07:30;;;;;;;9.20;4.40;;;;;;;0.17;100.00;98618.13;4975906;28;20206;-48
2022/02/12 00:09:58;;;;;;;9.00;5.57;;;;;;;0.20;100.00;98620.59;4991353;28;20225;-49
2022/02/12 00:12:26;;;;;;;13.40;11.40;;;;;;;0.11;100.00;98618.47;4968591;28;20231;-49
2022/02/12 00:14:57;;;;;;;7.13;6.27;;;;;;;0.13;100.00;98616.63;4975199;28;20210;-50
2022/02/12 00:17:25;;;;;;;6.57;4.40;;;;;;;0.11;100.00;98613.25;4951448;28;20206;-51
2022/02/12 00:19:54;;;;;;;5.77;5.17;;;;;;;0.12;100.00;98614.94;4983372;28;20637;-51
2022/02/12 00:22:22;;;;;;;6.13;5.53;;;;;;;0.06;100.00;98616.13;4969244;28;20217;-47
2022/02/12 00:24:50;;;;;;;5.90;4.50;;;;;;;0.14;100.00;98610.47;4988804;28;20267;-48
2022/02/12 00:27:18;;;;;;;6.90;4.93;;;;;;;0.14;100.00;98613.09;4970927;28;20215;-51
2022/02/12 00:29:46;;;;;;;5.90;4.70;;;;;;;0.16;100.00;98598.19;4975813;28;20312;-48
2022/02/12 00:32:15;;;;;;;6.37;5.27;;;;;;;0.36;100.00;98604.09;4960390;28;20755;-49
2022/02/12 00:34:43;;;;;;;7.63;4.87;;;;;;;0.52;100.00;98597.09;4973067;28;20297;-47
2022/02/12 00:37:13;;;;;;;5.73;4.73;;;;;;;0.32;100.00;98600.81;4981236;28;20203;-49
2022/02/12 00:39:42;;;;;;;4.97;3.83;;;;;;;0.15;100.00;98596.50;4987133;28;20232;-50
2022/02/12 00:42:11;;;;;;;7.20;4.87;;;;;;;0.11;100.00;98592.41;4975570;28;20224;-48
2022/02/12 00:44:39;;;;;;;5.37;4.90;;;;;;;0.06;100.00;98597.88;4965177;28;20213;-54
2022/02/12 00:47:08;;;;;;;4.87;4.47;;;;;;;-0.02;100.00;98598.28;4985080;28;20630;-53
2022/02/12 00:49:37;;;;;;;5.23;4.67;;;;;;;-0.10;100.00;98599.59;4954455;28;20228;-50
2022/02/12 00:52:07;;;;;;;5.13;4.73;;;;;;;-0.11;100.00;98590.97;4975930;28;20264;-56
2022/02/12 00:54:37;;;;;;;7.93;4.87;;;;;;;-0.15;100.00;98592.06;4971051;28;20300;-51
2022/02/12 00:57:05;;;;;;;5.97;5.07;;;;;;;-0.15;100.00;98579.84;4986972;28;20297;-56
2022/02/12 00:59:34;;;;;;;4.63;4.23;;;;;;;-0.25;100.00;98580.41;4954370;28;20215;-50
2022/02/12 01:02:02;;;;;;;4.97;4.07;;;;;;;-0.38;100.00;98569.78;4976732;28;20224;-55
2022/02/12 01:04:52;;;;;;;6.00;5.40;;;;;;;-0.46;100.00;98580.63;4938997;28;26156;-50
2022/02/12 01:07:20;;;;;;;4.53;4.13;;;;;;;-0.55;100.00;98568.94;4969972;28;21018;-47
2022/02/12 01:09:50;;;;;;;5.67;5.03;;;;;;;-0.51;100.00;98574.81;4978069;28;20253;-49
2022/02/12 01:12:19;;;;;;;5.03;4.63;;;;;;;-0.60;100.00;98576.97;4987517;28;20235;-52
2022/02/12 01:14:47;;;;;;;5.27;4.77;;;;;;;-0.81;100.00;98571.09;4970999;28;20307;-49
2022/02/12 01:17:16;;;;;;;4.70;4.27;;;;;;;-0.56;100.00;98572.44;4971837;28;20787;-51
2022/02/12 01:19:44;;;;;;;5.87;4.70;;;;;;;-0.55;100.00;98570.69;4960805;28;20894;-48
2022/02/12 01:22:12;;;;;;;5.30;4.87;;;;;;;-0.95;100.00;98573.56;4976134;28;20897;-51
2022/02/12 01:24:42;;;;;;;4.70;4.33;;;;;;;-1.29;100.00;98573.47;4978266;28;20405;-54
2022/02/12 01:27:12;;;;;;;4.60;4.10;;;;;;;-1.58;100.00;98567.06;4975106;28;20283;-50
2022/02/12 01:29:41;;;;;;;5.53;4.57;;;;;;;-1.74;100.00;98567.81;4950926;28;20637;-48
2022/02/12 01:32:09;;;;;;;4.77;4.33;;;;;;;-1.87;100.00;98569.31;4966468;28;20279;-54
2022/02/12 01:34:38;;;;;;;4.77;4.37;;;;;;;-2.00;100.00;98569.03;4982905;28;20443;-52
2022/02/12 01:37:08;;;;;;;4.87;4.40;;;;;;;-2.03;100.00;98567.41;4943979;28;20252;-49
2022/02/12 01:39:37;;;;;;;4.47;4.07;;;;;;;-2.01;100.00;98559.56;4975465;28;20224;-47
2022/02/12 01:42:05;;;;;;;7.07;4.83;;;;;;;-2.02;100.00;98566.47;4970437;28;20806;-49
2022/02/12 01:44:37;;;;;;;4.43;4.10;;;;;;;-1.97;100.00;98550.69;4946634;28;20430;-48
2022/02/12 01:47:07;;;;;;;6.43;5.00;;;;;;;-1.62;100.00;98567.22;4940451;28;20585;-49
2022/02/12 01:49:36;;;;;;;5.73;4.53;;;;;;;-1.51;100.00;98561.50;4984845;28;20227;-49
2022/02/12 01:52:07;;;;;;;5.60;5.10;;;;;;;-1.45;100.00;98555.19;4942638;28;20615;-48
2022/02/12 01:54:36;;;;;;;5.70;5.13;;;;;;;-1.49;100.00;98551.88;4964639;28;20213;-52
2022/02/12 01:57:06;;;;;;;6.97;5.40;;;;;;;-1.51;100.00;98555.47;4956521;28;20217;-51
2022/02/12 01:59:36;;;;;;;5.77;5.27;;;;;;;-1.63;100.00;98541.31;4970680;28;20278;-50
2022/02/12 02:02:04;;;;;;;6.87;5.70;;;;;;;-1.65;100.00;98549.16;4936051;28;20230;-54
2022/02/12 02:04:32;;;;;;;6.03;5.53;;;;;;;-1.60;100.00;98557.59;4986392;28;20201;-48
2022/02/12 02:07:01;;;;;;;5.77;4.90;;;;;;;-1.58;100.00;98547.13;4950945;28;20685;-50
2022/02/12 02:09:31;;;;;;;8.07;5.20;;;;;;;-1.50;100.00;98544.16;4965850;28;20450;-46
2022/02/12 02:11:59;;;;;;;6.87;4.63;;;;;;;-1.54;100.00;98545.22;4964335;28;20609;-50
2022/02/12 02:14:31;;;;;;;6.17;5.57;;;;;;;-1.47;100.00;98544.84;4964553;28;20581;-49
2022/02/12 02:17:01;;;;;;;7.53;6.68;;;;;;;-1.44;100.00;98527.41;4941812;28;20533;-53
2022/02/12 02:19:32;;;;;;;5.90;5.27;;;;;;;-1.52;100.00;98531.22;4961470;28;20648;-49
2022/02/12 02:22:04;;;;;;;5.22;4.72;;;;;;;-1.55;100.00;98527.94;4945268;28;21443;-44
2022/02/12 02:24:33;;;;;;;5.60;5.03;;;;;;;-1.54;100.00;98532.22;4966356;28;20213;-50
2022/02/12 02:27:07;;;;;;;5.10;4.70;;;;;;;-1.95;100.00;98539.31;4984607;28;20685;-51
2022/02/12 02:29:38;;;;;;;6.00;5.50;;;;;;;-2.19;100.00;98543.88;4956273;28;20205;-50
2022/02/12 02:32:08;;;;;;;5.63;5.13;;;;;;;-2.40;100.00;98551.75;4950490;28;20608;-49
2022/02/12 02:34:36;;;;;;;7.40;5.30;;;;;;;-2.60;100.00;98536.19;4966069;28;20461;-49
2022/02/12 02:37:04;;;;;;;6.67;5.37;;;;;;;-2.65;100.00;98544.22;4948594;28;20223;-50
2022/02/12 02:39:34;;;;;;;5.27;4.77;;;;;;;-2.66;100.00;98543.34;4976206;28;20757;-49
2022/02/12 02:42:04;;;;;;;5.47;4.97;;;;;;;-2.73;100.00;98539.34;4965345;28;20353;-52
2022/02/12 02:44:32;;;;;;;5.13;4.67;;;;;;;-2.68;100.00;98545.16;4977131;28;20298;-47
2022/02/12 02:47:32;;;;;;;5.77;5.30;;;;;;;-2.71;100.00;98544.44;4954029;28;20227;-49
2022/02/12 02:49:50;;;;;;;7.17;5.23;;;;;;;-2.81;100.00;98557.00;4968027;28;20213;-49
2022/02/12 02:57:53;;;;;;;7.87;5.67;;;;;;;-2.93;100.00;98563.53;4950169;28;20798;-47
2022/02/12 03:00:22;;;;;;;5.67;4.90;;;;;;;-2.96;100.00;98567.09;4969268;28;20224;-51
2022/02/12 03:02:50;;;;;;;5.27;4.77;;;;;;;-3.00;100.00;98560.34;4961980;28;20338;-51
2022/02/12 03:05:18;;;;;;;8.47;5.27;;;;;;;-3.09;100.00;98561.56;4970412;28;20503;-46
2022/02/12 03:07:46;;;;;;;7.63;5.53;;;;;;;-3.13;100.00;98562.63;4981089;28;20272;-46
2022/02/12 03:10:16;;;;;;;7.43;5.10;;;;;;;-3.17;100.00;98565.41;4957170;28;20558;-52
2022/02/12 03:12:44;;;;;;;7.07;5.40;;;;;;;-3.21;100.00;98567.28;4961998;28;22385;-53
2022/02/12 03:15:12;;;;;;;7.10;4.33;;;;;;;-3.28;100.00;98573.63;4969282;28;20911;-48
2022/02/12 03:17:41;;;;;;;7.20;5.73;;;;;;;-3.30;100.00;98571.09;4950299;28;20490;-51
2022/02/12 03:20:10;;;;;;;6.40;5.03;;;;;;;-3.32;100.00;98572.06;4971726;28;20226;-49
2022/02/12 03:22:38;;;;;;;5.97;5.37;;;;;;;-3.37;100.00;98561.88;4979941;28;20224;-51
2022/02/12 03:25:07;;;;;;;6.93;5.43;;;;;;;-3.36;100.00;98568.75;4946294;28;20218;-50
2022/02/12 03:27:37;;;;;;;4.90;4.50;;;;;;;-3.42;100.00;98569.00;4962278;28;21281;-48
2022/02/12 03:30:07;;;;;;;6.20;5.13;;;;;;;-3.36;100.00;98569.59;4942066;28;20448;-45
2022/02/12 03:32:35;;;;;;;5.50;5.00;;;;;;;-3.55;100.00;98572.09;4984435;28;20495;-49
2022/02/12 03:35:04;;;;;;;7.93;5.47;;;;;;;-3.49;100.00;98564.06;4937040;28;20421;-49
2022/02/12 03:37:32;;;;;;;6.10;4.80;;;;;;;-3.52;100.00;98565.94;4972588;28;20214;-47
2022/02/12 03:40:00;;;;;;;7.23;5.27;;;;;;;-3.58;100.00;98567.03;4941607;28;20487;-51
2022/02/12 03:42:29;;;;;;;4.87;4.47;;;;;;;-3.64;100.00;98562.06;4985869;28;20510;-50
2022/02/12 03:44:58;;;;;;;6.07;5.43;;;;;;;-3.64;100.00;98568.13;4947986;28;20255;-50
2022/02/12 03:47:27;;;;;;;5.57;5.03;;;;;;;-3.70;100.00;98567.50;4990263;28;20220;-48
2022/02/12 03:49:55;;;;;;;6.53;5.20;;;;;;;-3.75;100.00;98572.03;4946108;28;20209;-49
2022/02/12 03:52:23;;;;;;;6.77;5.00;;;;;;;-3.87;100.00;98578.50;4969032;28;20343;-48
2022/02/12 03:54:52;;;;;;;9.80;5.77;;;;;;;-4.00;100.00;98583.31;4981720;28;20963;-53
2022/02/12 03:57:20;;;;;;;5.63;4.70;;;;;;;-4.02;100.00;98577.34;4948428;28;20480;-51
2022/02/12 03:59:49;;;;;;;7.07;5.40;;;;;;;-4.07;100.00;98564.59;4957095;28;20208;-51
2022/02/12 04:02:21;;;;;;;6.80;5.60;;;;;;;-3.98;100.00;98582.38;4974286;28;21256;-46
2022/02/12 04:04:50;;;;;;;9.87;6.00;;;;;;;-4.12;100.00;98585.47;4979829;28;20213;-53
2022/02/12 04:07:18;;;;;;;7.17;6.40;;;;;;;-4.15;100.00;98582.16;4961425;28;21206;-47
2022/02/12 04:09:46;;;;;;;5.73;5.07;;;;;;;-4.23;100.00;98588.44;4987447;28;20209;-51
2022/02/12 04:12:15;;;;;;;6.83;5.40;;;;;;;-4.25;100.00;98579.06;4933379;28;20511;-46
2022/02/12 04:14:43;;;;;;;7.93;6.00;;;;;;;-4.26;100.00;98591.16;4967722;28;20308;-50
2022/02/12 04:17:11;;;;;;;8.80;6.53;;;;;;;-4.14;100.00;98584.69;4970168;28;20232;-51
2022/02/12 04:19:42;;;;;;;6.20;5.63;;;;;;;-4.00;100.00;98578.13;4974449;28;20471;-50
2022/02/12 04:22:10;;;;;;;8.33;6.27;;;;;;;-3.99;100.00;98587.59;4946241;28;20783;-49
2022/02/12 04:24:39;;;;;;;9.33;5.67;;;;;;;-4.02;100.00;98582.53;4986863;28;20552;-54
2022/02/12 04:27:07;;;;;;;6.43;5.93;;;;;;;-4.02;100.00;98580.78;4934834;28;21700;-50
2022/02/12 04:29:38;;;;;;;7.77;5.40;;;;;;;-3.98;100.00;98577.19;4982338;28;21016;-49
2022/02/12 04:32:07;;;;;;;8.57;5.83;;;;;;;-4.07;100.00;98578.38;4940419;28;20498;-53
2022/02/12 04:34:35;;;;;;;6.53;5.37;;;;;;;-4.03;100.00;98570.47;4985068;28;20468;-50
2022/02/12 04:37:05;;;;;;;7.20;6.50;;;;;;;-3.95;100.00;98576.25;4942790;28;21134;-52
2022/02/12 04:39:34;;;;;;;9.53;7.10;;;;;;;-3.92;100.00;98568.34;4988844;28;21007;-50
2022/02/12 04:42:06;;;;;;;5.83;5.30;;;;;;;-3.82;100.00;98574.00;4941240;28;21333;-49
2022/02/12 04:44:34;;;;;;;6.23;5.67;;;;;;;-3.45;100.00;98572.53;4983712;28;20641;-50
2022/02/12 04:47:03;;;;;;;6.60;5.67;;;;;;;-3.53;100.00;98578.06;4945686;28;20698;-49
2022/02/12 04:49:31;;;;;;;7.27;6.10;;;;;;;-3.62;100.00;98570.63;4989326;28;20201;-47
2022/02/12 04:51:59;;;;;;;5.90;5.40;;;;;;;-3.73;100.00;98570.22;4957141;28;20498;-52
2022/02/12 04:54:30;;;;;;;7.13;5.40;;;;;;;-3.73;100.00;98565.03;4974488;28;20217;-49
2022/02/12 04:56:58;;;;;;;8.77;6.40;;;;;;;-3.69;100.00;98564.88;4970977;28;20469;-53
2022/02/12 04:59:27;;;;;;;7.00;6.20;;;;;;;-3.55;100.00;98558.28;4952926;28;20468;-50
2022/02/12 05:01:55;;;;;;;9.33;6.97;;;;;;;-3.52;100.00;98556.41;4963000;28;20995;-51
2022/02/12 05:04:24;;;;;;;10.43;8.40;;;;;;;-3.39;100.00;98558.50;4969738;28;20297;-50
2022/02/12 05:06:53;;;;;;;14.70;9.50;;;;;;;-3.37;100.00;98557.56;4961687;28;20616;-52
2022/02/12 05:09:21;;;;;;;10.60;7.00;;;;;;;-3.20;100.00;98545.63;4974915;28;20213;-48
2022/02/12 05:11:52;;;;;;;13.83;7.40;;;;;;;-3.47;100.00;98545.03;4984153;28;20233;-56
2022/02/12 05:14:20;;;;;;;10.43;6.83;;;;;;;-3.53;100.00;98541.78;4945294;28;21016;-53
2022/02/12 05:16:48;;;;;;;9.83;6.93;;;;;;;-3.38;100.00;98527.34;4982520;28;20207;-49
2022/02/12 05:19:17;;;;;;;9.17;7.47;;;;;;;-3.65;100.00;98529.28;4973126;28;20346;-48
2022/02/12 05:21:45;;;;;;;9.80;6.83;;;;;;;-3.74;100.00;98534.84;4983810;28;21011;-48
2022/02/12 05:24:14;;;;;;;6.70;5.57;;;;;;;-3.85;100.00;98535.25;4956456;28;20545;-50
2022/02/12 05:26:42;;;;;;;9.57;7.63;;;;;;;-4.08;100.00;98534.44;4984078;28;20460;-51
2022/02/12 05:29:12;;;;;;;9.07;8.17;;;;;;;-3.69;100.00;98540.69;4973620;28;20210;-46
2022/02/12 05:31:42;;;;;;;9.90;7.17;;;;;;;-3.80;100.00;98539.38;4950981;28;20495;-50
2022/02/12 05:34:16;;;;;;;9.23;8.10;;;;;;;-3.99;100.00;98540.97;4973595;28;20818;-52
2022/02/12 05:36:45;;;;;;;8.27;6.87;;;;;;;-4.13;100.00;98542.34;4974744;28;20213;-52
2022/02/12 05:39:13;;;;;;;9.70;6.80;;;;;;;-4.12;100.00;98538.88;4963664;28;20484;-54
2022/02/12 05:41:41;;;;;;;12.00;9.20;;;;;;;-4.16;100.00;98539.88;4976535;28;20491;-49
2022/02/12 05:44:10;;;;;;;12.23;8.80;;;;;;;-3.65;100.00;98540.53;4977624;28;21086;-50
2022/02/12 05:46:40;;;;;;;10.97;7.83;;;;;;;-3.46;100.00;98539.75;4954846;28;20478;-48
2022/02/12 05:49:09;;;;;;;8.70;6.73;;;;;;;-3.56;100.00;98539.31;4971922;28;20539;-51
2022/02/12 05:51:37;;;;;;;14.13;7.77;;;;;;;-3.58;100.00;98541.13;4985571;28;20907;-53
2022/02/12 05:54:05;;;;;;;12.53;8.77;;;;;;;-3.74;100.00;98535.72;4972853;28;20782;-52
2022/02/12 05:56:34;;;;;;;9.50;8.47;;;;;;;-3.77;100.00;98538.44;4980982;28;20245;-49
2022/02/12 05:59:08;;;;;;;10.13;7.90;;;;;;;-3.70;100.00;98546.78;4975428;28;20205;-49
2022/02/12 06:01:36;;;;;;;9.37;8.07;;;;;;;-3.62;100.00;98536.94;4983951;28;20476;-49
2022/02/12 06:04:06;;;;;;;9.63;7.87;;;;;;;-3.57;100.00;98534.19;4939978;28;20919;-51
2022/02/12 06:06:34;;;;;;;9.17;7.23;;;;;;;-3.64;100.00;98533.56;4983187;28;20459;-49
2022/02/12 06:09:02;;;;;;;7.57;6.53;;;;;;;-3.68;100.00;98532.88;4979756;28;20726;-48
2022/02/12 06:11:30;;;;;;;10.13;7.20;;;;;;;-3.75;100.00;98530.56;4981996;28;20491;-48
2022/02/12 06:13:59;;;;;;;10.73;7.53;;;;;;;-3.59;100.00;98530.81;4977858;28;20483;-46
2022/02/12 06:16:27;;;;;;;9.33;6.80;;;;;;;-3.75;100.00;98527.97;4975291;28;20314;-49
2022/02/12 06:18:56;;;;;;;11.53;7.43;;;;;;;-3.86;100.00;98538.75;4953199;28;20558;-47
2022/02/12 06:21:25;;;;;;;7.47;6.40;;;;;;;-3.73;100.00;98524.44;4981320;28;20799;-48
2022/02/12 06:23:56;;;;;;;8.30;6.90;;;;;;;-3.56;100.00;98535.88;4976578;28;21001;-48
2022/02/12 06:26:24;;;;;;;11.00;7.87;;;;;;;-3.63;100.00;98527.47;4974356;28;20535;-47
2022/02/12 06:28:52;;;;;;;7.63;6.93;;;;;;;-3.71;100.00;98533.00;4983114;28;20468;-50
2022/02/12 06:31:20;;;;;;;9.73;6.60;;;;;;;-3.54;100.00;98529.72;4980169;28;20464;-47
2022/02/12 06:33:48;;;;;;;9.33;6.37;;;;;;;-3.56;100.00;98533.28;4952782;28;21665;-50
2022/02/12 06:36:16;;;;;;;11.33;6.27;;;;;;;-3.56;100.00;98522.91;4982213;28;20996;-46
2022/02/12 06:38:46;;;;;;;10.63;6.80;;;;;;;-3.54;100.00;98536.66;4983894;28;20709;-49
2022/02/12 06:41:14;;;;;;;7.40;5.73;;;;;;;-3.50;100.00;98535.63;4969358;28;20574;-51
2022/02/12 06:43:42;;;;;;;10.63;5.93;;;;;;;-3.62;100.00;98534.34;4984691;28;20213;-49
2022/02/12 06:46:11;;;;;;;5.63;5.13;;;;;;;-3.54;100.00;98534.06;4969543;28;20972;-51
2022/02/12 06:48:39;;;;;;;6.23;5.63;;;;;;;-3.56;100.00;98531.53;4954087;28;21164;-50
2022/02/12 06:51:07;;;;;;;6.33;5.60;;;;;;;-3.52;100.00;98537.44;4971387;28;20472;-50
2022/02/12 06:53:35;;;;;;;6.73;6.07;;;;;;;-3.69;100.00;98530.31;4964688;28;20536;-50
2022/02/12 06:56:06;;;;;;;6.53;5.93;;;;;;;-3.70;100.00;98533.81;4957769;28;20475;-45
2022/02/12 06:58:40;;;;;;;8.37;6.40;;;;;;;-3.71;100.00;98526.97;4962790;28;20787;-52
2022/02/12 07:01:08;;;;;;;6.27;4.93;;;;;;;-3.60;100.00;98529.94;4964821;28;20472;-47
2022/02/12 07:03:36;;;;;;;6.70;5.87;;;;;;;-3.55;100.00;98533.22;4950345;28;21918;-55
2022/02/12 07:06:07;;;;;;;7.67;5.93;;;;;;;-3.62;100.00;98529.16;4961867;28;20471;-50
2022/02/12 07:08:35;;;;;;;8.37;5.57;;;;;;;-3.62;100.00;98531.75;4980038;28;20832;-54
2022/02/12 07:11:04;;;;;;;9.57;5.70;;;;;;;-3.47;100.00;98539.84;4970120;28;20474;-51
2022/02/12 07:13:33;;;;;;;6.50;5.83;;;;;;;-3.59;100.00;98536.00;4982143;28;20488;-50
2022/02/12 07:16:02;;;;;;;6.50;5.90;;;;;;;-3.64;100.00;98538.75;4975345;28;20468;-48
2022/02/12 07:18:30;;;;;;;8.17;5.63;;;;;;;-3.68;100.00;98532.00;4986533;28;20641;-52
2022/02/12 07:20:58;;;;;;;8.33;5.33;;;;;;;-3.63;100.00;98535.25;4949173;28;20565;-50
2022/02/12 07:23:27;;;;;;;5.37;4.87;;;;;;;-3.34;100.00;98541.00;4972539;28;20544;-50
2022/02/12 07:25:55;;;;;;;8.60;4.80;;;;;;;-3.18;100.00;98537.81;4988768;28;20719;-49
2022/02/12 07:28:27;;;;;;;5.70;5.10;;;;;;;-3.13;100.00;98539.28;4971034;28;20275;-51
2022/02/12 07:30:56;;;;;;;6.53;5.43;;;;;;;-3.08;100.00;98544.28;4989796;28;20460;-50
2022/02/12 07:33:26;;;;;;;9.30;6.00;;;;;;;-2.96;100.00;98533.38;4974730;28;20570;-49
2022/02/12 07:35:54;;;;;;;6.90;5.50;;;;;;;-2.65;100.00;98534.66;4959553;28;20515;-51
2022/02/12 07:38:23;;;;;;;7.37;5.40;;;;;;;-2.67;100.00;98533.03;4975462;28;20546;-52
2022/02/12 07:40:51;;;;;;;7.03;5.43;;;;;;;-2.72;100.00;98530.66;4989467;28;20464;-50
2022/02/12 07:43:19;;;;;;;5.57;5.07;;;;;;;-2.43;100.00;98532.84;4960911;28;20272;-52
2022/02/12 07:45:49;;;;;;;6.53;5.27;;;;;;;-2.41;100.00;98525.84;4987539;28;20591;-48
2022/02/12 07:48:17;;;;;;;5.93;5.33;;;;;;;-2.23;100.00;98529.34;4974711;28;21081;-54
2022/02/12 07:50:45;;;;;;;6.90;6.07;;;;;;;-2.02;100.00;98524.09;4955187;28;21060;-45
2022/02/12 07:53:14;;;;;;;10.03;7.03;;;;;;;-2.05;100.00;98523.31;4973347;28;20295;-49
2022/02/12 07:55:42;;;;;;;7.03;6.20;;;;;;;-1.99;100.00;98537.75;4984689;28;20209;-49
2022/02/12 07:58:12;;;;;;;8.50;7.00;;;;;;;-2.13;100.00;98514.19;4985413;28;20205;-47
2022/02/12 08:00:41;;;;;;;8.47;6.63;;;;;;;-1.95;100.00;98528.91;4969888;28;20492;-48
2022/02/12 08:03:10;;;;;;;9.07;6.57;;;;;;;-1.88;100.00;98526.88;4977395;28;20601;-50
2022/02/12 08:05:39;;;;;;;7.80;6.03;;;;;;;-1.63;100.00;98525.72;4950786;28;20710;-52
2022/02/12 08:08:07;;;;;;;10.40;7.10;;;;;;;-1.68;100.00;98531.13;4985436;28;20212;-49
2022/02/12 08:13:21;;;;;;;12.40;8.83;;;;;;;-1.46;100.00;98537.91;4981191;28;20286;-48
2022/02/12 08:15:49;;;;;;;9.30;7.40;;;;;;;-1.29;100.00;98536.22;4973853;28;20913;-47
2022/02/12 08:18:19;;;;;;;10.73;8.00;;;;;;;-1.11;100.00;98534.47;4964602;28;20205;-52
2022/02/12 08:20:47;;;;;;;8.53;6.63;;;;;;;-0.93;100.00;98533.56;4980466;28;20914;-48
2022/02/12 08:23:17;;;;;;;8.70;6.90;;;;;;;-0.77;100.00;98538.78;4950456;28;20608;-51
2022/02/12 08:25:46;;;;;;;14.23;6.73;;;;;;;-0.64;100.00;98530.34;4977063;28;20258;-50
2022/02/12 08:28:14;;;;;;;6.37;5.77;;;;;;;-0.47;100.00;98525.09;4974575;28;20420;-51
2022/02/12 08:30:42;;;;;;;7.13;6.50;;;;;;;-0.28;100.00;98516.31;4971932;28;20217;-50
2022/02/12 08:33:12;;;;;;;6.10;5.50;;;;;;;-0.30;100.00;98521.59;4980339;28;20286;-50
2022/02/12 08:35:55;;;;;;;6.63;5.93;;;;;;;-0.07;100.00;98526.47;4968938;28;20605;-49
2022/02/12 08:38:24;;;;;;;6.40;5.80;;;;;;;0.25;100.00;98521.25;4948206;28;20248;-49
2022/02/12 08:40:53;;;;;;;5.63;5.13;;;;;;;0.39;100.00;98525.69;4971416;28;20616;-47
2022/02/12 08:43:21;;;;;;;5.93;4.47;;;;;;;0.47;100.00;98525.28;4972952;28;20481;-50
2022/02/12 08:45:49;;;;;;;5.43;5.03;;;;;;;0.68;100.00;98525.81;4987417;28;20233;-47
2022/02/12 08:48:17;;;;;;;6.13;5.30;;;;;;;0.76;100.00;98523.59;4967938;28;20212;-53
2022/02/12 08:50:46;;;;;;;5.33;4.83;;;;;;;0.68;100.00;98521.44;4972376;28;20209;-48
2022/02/12 08:53:16;;;;;;;6.97;5.80;;;;;;;0.64;100.00;98500.84;4955926;28;20244;-53
2022/02/12 08:55:46;;;;;;;8.97;5.50;;;;;;;0.91;100.00;98518.41;4972337;28;20298;-48
2022/02/12 08:58:15;;;;;;;6.13;5.57;;;;;;;1.12;100.00;98516.28;4982825;28;20880;-53
2022/02/12 09:00:43;;;;;;;9.03;8.07;;;;;;;1.35;100.00;98522.78;4975888;28;20278;-51
2022/02/12 09:03:13;;;;;;;6.53;5.93;;;;;;;1.53;100.00;98517.34;4965412;28;20326;-49
2022/02/12 09:05:41;;;;;;;8.53;7.13;;;;;;;1.68;100.00;98526.03;4976270;28;20279;-49
2022/02/12 09:08:10;;;;;;;8.03;6.90;;;;;;;1.79;100.00;98510.53;4985588;28;20299;-54
2022/02/12 09:10:41;;;;;;;7.33;5.33;;;;;;;1.72;100.00;98515.31;4952046;28;20272;-55
2022/02/12 09:13:10;;;;;;;6.73;6.03;;;;;;;1.80;100.00;98511.38;4972776;28;20239;-49
2022/02/12 09:15:38;;;;;;;5.93;5.30;;;;;;;2.06;100.00;98508.88;4968252;28;20614;-50
2022/02/12 09:18:06;;;;;;;6.00;5.47;;;;;;;2.04;100.00;98503.75;4976210;28;20295;-51
2022/02/12 09:20:35;;;;;;;7.87;6.40;;;;;;;2.07;100.00;98494.88;4954690;28;20232;-50
2022/02/12 09:23:03;;;;;;;5.93;5.43;;;;;;;2.40;100.00;98496.25;4969147;28;20326;-52
2022/02/12 09:25:32;;;;;;;7.57;6.40;;;;;;;2.63;100.00;98499.16;4950764;28;20241;-52
2022/02/12 09:28:01;;;;;;;7.10;5.60;;;;;;;2.50;100.00;98494.72;4965950;28;20372;-48
2022/02/12 09:30:29;;;;;;;6.37;5.97;;;;;;;2.58;100.00;98494.22;4970603;28;20320;-50
2022/02/12 09:32:58;;;;;;;6.90;6.30;;;;;;;2.70;100.00;98495.19;4981475;28;20220;-50
2022/02/12 09:35:50;;;;;;;6.87;5.73;;;;;;;2.59;100.00;98491.50;4967826;28;20228;-50
2022/02/12 09:38:18;;;;;;;5.83;5.23;;;;;;;2.65;100.00;98486.81;4973735;28;20585;-48
2022/02/12 09:40:46;;;;;;;6.53;6.03;;;;;;;2.65;100.00;98484.19;4951770;28;20234;-51
2022/02/12 09:43:23;;;;;;;7.80;5.80;;;;;;;2.67;100.00;98479.69;4972802;28;20229;-47
2022/02/12 09:46:00;;;;;;;8.70;5.33;;;;;;;2.94;100.00;98486.66;4971292;28;20189;-49
2022/02/12 09:48:29;;;;;;;8.57;5.70;;;;;;;2.99;100.00;98485.38;4982350;28;20214;-53
2022/02/12 09:51:02;;;;;;;6.43;5.67;;;;;;;2.20;100.00;98482.69;4967390;28;20323;-49
2022/02/12 09:53:31;;;;;;;7.97;6.10;;;;;;;2.10;100.00;98487.69;4973016;28;20229;-52
2022/02/12 09:55:59;;;;;;;9.57;6.17;;;;;;;2.12;100.00;98482.38;4948579;28;20948;-51
2022/02/12 09:58:29;;;;;;;8.30;6.60;;;;;;;2.02;100.00;98485.53;4970822;28;20955;-46
2022/02/12 10:00:57;;;;;;;8.87;5.80;;;;;;;1.78;100.00;98487.13;4957215;28;20295;-49
2022/02/12 10:03:25;;;;;;;5.67;5.13;;;;;;;1.75;100.00;98482.06;4986593;28;20228;-48
2022/02/12 10:05:55;;;;;;;7.57;4.67;;;;;;;2.09;100.00;98477.34;4966428;28;20228;-50
2022/02/12 10:08:24;;;;;;;7.50;5.30;;;;;;;2.23;100.00;98477.28;4973056;28;20811;-50
2022/02/12 10:10:53;;;;;;;5.33;4.90;;;;;;;2.43;100.00;98477.75;4952527;28;20860;-48
2022/02/12 10:13:22;;;;;;;6.27;5.43;;;;;;;2.62;100.00;98472.13;4982599;28;20225;-48
2022/02/12 10:15:54;;;;;;;7.87;7.07;;;;;;;2.65;100.00;98466.72;4968214;28;20217;-52
2022/02/12 10:18:23;;;;;;;8.17;6.13;;;;;;;2.49;100.00;98466.03;4973241;28;20209;-49
2022/02/12 10:20:53;;;;;;;8.23;6.50;;;;;;;2.26;100.00;98456.16;4981845;28;21117;-50
2022/02/12 10:23:23;;;;;;;6.70;4.80;;;;;;;2.19;100.00;98448.78;4970261;28;20245;-49
2022/02/12 10:25:53;;;;;;;8.52;5.03;;;;;;;2.47;100.00;98453.06;4964273;28;20453;-50
2022/02/12 10:28:21;;;;;;;3.97;3.60;;;;;;;2.41;100.00;98440.38;4956554;28;20220;-48
2022/02/12 10:30:51;;;;;;;5.20;4.40;;;;;;;2.26;100.00;98437.00;4971615;28;20209;-50
2022/02/12 10:33:19;;;;;;;5.53;3.77;;;;;;;2.45;100.00;98436.63;4974530;28;20236;-49
2022/02/12 10:35:55;;;;;;;5.57;4.80;;;;;;;2.67;100.00;98422.97;4994780;28;20280;-49
2022/02/12 10:38:26;;;;;;;4.23;3.87;;;;;;;2.85;100.00;98420.88;4977381;28;20282;-50
2022/02/12 10:41:13;;;;;;;4.23;3.53;;;;;;;2.80;100.00;98422.94;4976092;28;20201;-47
2022/02/12 10:43:42;;;;;;;6.53;4.40;;;;;;;3.07;100.00;98415.94;4953277;28;20260;-50
2022/02/12 10:46:11;;;;;;;8.33;4.30;;;;;;;3.60;100.00;98405.28;4969081;28;20209;-45
2022/02/12 10:48:41;;;;;;;3.20;3.00;;;;;;;4.05;100.00;98404.66;4971243;28;20217;-51
2022/02/12 10:51:14;;;;;;;4.70;3.60;;;;;;;4.17;100.00;98395.91;4982065;28;20288;-46
2022/02/12 10:54:04;;;;;;;3.50;3.20;;;;;;;4.03;100.00;98390.81;4966718;28;20201;-52
2022/02/12 10:56:46;;;;;;;5.07;3.40;;;;;;;4.05;100.00;98383.69;4970669;28;20257;-51
2022/02/12 10:59:17;;;;;;;3.40;3.10;;;;;;;4.04;100.00;98382.84;4949591;28;20299;-47
2022/02/12 11:01:47;;;;;;;3.57;2.80;;;;;;;4.01;100.00;98383.09;4924936;28;20315;-48
2022/02/12 11:04:16;;;;;;;3.17;2.77;;;;;;;4.46;100.00;98379.75;4948888;28;20377;-49
2022/02/12 11:06:46;;;;;;;3.17;2.97;;;;;;;4.44;100.00;98372.97;4968876;28;20296;-51
2022/02/12 11:09:15;;;;;;;6.93;4.37;;;;;;;4.48;100.00;98371.78;4952023;28;20209;-51
2022/02/12 11:11:43;;;;;;;4.87;3.90;;;;;;;4.29;100.00;98360.03;4969235;28;20771;-50
2022/02/12 11:14:13;;;;;;;4.47;3.17;;;;;;;4.27;100.00;98361.94;4950073;28;20217;-53
2022/02/12 11:16:42;;;;;;;3.77;3.57;;;;;;;4.13;100.00;98352.47;4971212;28;20229;-47
2022/02/12 11:19:13;;;;;;;3.03;2.83;;;;;;;4.18;100.00;98345.13;4983424;28;20248;-52
2022/02/12 11:21:41;;;;;;;2.60;2.33;;;;;;;4.21;100.00;98338.78;4982636;28;20232;-48
2022/02/12 11:24:11;;;;;;;3.87;3.10;;;;;;;4.22;100.00;98340.44;4966110;28;20592;-50
2022/02/12 11:26:41;;;;;;;2.63;2.43;;;;;;;4.14;100.00;98330.53;4970267;28;20527;-51
2022/02/12 11:29:33;;;;;;;2.33;2.13;;;;;;;4.17;100.00;98324.22;4951310;28;20268;-49
2022/02/12 11:32:09;;;;;;;2.60;2.40;;;;;;;4.20;100.00;98331.88;4966066;28;20239;-50
2022/02/12 11:34:43;;;;;;;3.50;3.20;;;;;;;3.97;100.00;98321.28;4973393;28;20255;-49
2022/02/12 11:37:19;;;;;;;6.00;3.47;;;;;;;4.11;100.00;98314.19;4979307;28;20642;-52
2022/02/12 11:40:09;;;;;;;3.67;2.83;;;;;;;4.18;100.00;98308.38;4970228;28;20237;-48
2022/02/12 11:42:46;;;;;;;2.67;2.50;;;;;;;4.33;100.00;98308.16;4986441;28;20894;-45
2022/02/12 11:45:25;;;;;;;2.60;2.40;;;;;;;4.28;100.00;98294.56;4950892;28;20221;-52